createdAt,value
2018-05-03T00:00:45.695Z,13.75
2018-05-03T00:01:45.689Z,13.75
2018-05-03T00:02:45.692Z,13.75
2018-05-03T00:03:45.799Z,13.75
2018-05-03T00:04:45.675Z,13.69
2018-05-03T00:05:45.660Z,13.69
2018-05-03T00:06:45.692Z,13.69
2018-05-03T00:07:45.817Z,13.69
2018-05-03T00:08:45.674Z,13.69
2018-05-03T00:09:45.795Z,13.69
2018-05-03T00:10:45.727Z,13.69
2018-05-03T00:11:45.724Z,13.69
2018-05-03T00:12:45.698Z,13.69
2018-05-03T00:13:45.693Z,13.69
2018-05-03T00:14:45.708Z,13.69
2018-05-03T00:15:45.729Z,13.69
2018-05-03T00:16:45.724Z,13.62
2018-05-03T00:17:45.699Z,13.69
2018-05-03T00:18:45.699Z,13.69
2018-05-03T00:19:45.697Z,13.69
2018-05-03T00:20:45.717Z,13.69
2018-05-03T00:21:45.694Z,13.62
2018-05-03T00:22:45.692Z,13.69
2018-05-03T00:23:45.742Z,13.69
2018-05-03T00:24:45.693Z,13.69
2018-05-03T00:25:45.681Z,13.69
2018-05-03T00:26:45.896Z,13.69
2018-05-03T00:27:45.701Z,13.69
2018-05-03T00:28:45.691Z,13.69
2018-05-03T00:29:45.687Z,13.69
2018-05-03T00:30:45.721Z,13.69
2018-05-03T00:31:45.809Z,13.69
2018-05-03T00:32:45.666Z,13.69
2018-05-03T00:33:45.826Z,13.69
2018-05-03T00:34:45.715Z,13.69
2018-05-03T00:35:45.718Z,13.69
2018-05-03T00:36:45.702Z,13.62
2018-05-03T00:37:45.868Z,13.69
2018-05-03T00:38:45.679Z,13.69
2018-05-03T00:39:45.708Z,13.62
2018-05-03T00:40:45.689Z,13.69
2018-05-03T00:41:45.871Z,13.62
2018-05-03T00:42:45.695Z,13.62
2018-05-03T00:43:45.687Z,13.62
2018-05-03T00:44:45.772Z,13.62
2018-05-03T00:45:46.171Z,13.62
2018-05-03T00:46:45.687Z,13.62
2018-05-03T00:47:45.694Z,13.62
2018-05-03T00:48:45.697Z,13.62
2018-05-03T00:49:45.704Z,13.62
2018-05-03T00:50:45.700Z,13.62
2018-05-03T00:51:45.704Z,13.56
2018-05-03T00:52:45.690Z,13.62
2018-05-03T00:53:45.705Z,13.62
2018-05-03T00:54:45.715Z,13.62
2018-05-03T00:55:45.680Z,13.62
2018-05-03T00:56:45.692Z,13.62
2018-05-03T00:57:45.705Z,13.69
2018-05-03T00:58:45.721Z,13.62
2018-05-03T00:59:45.720Z,13.62
2018-05-03T01:00:45.693Z,13.62
2018-05-03T01:01:45.682Z,13.62
2018-05-03T01:02:45.792Z,13.62
2018-05-03T01:03:45.698Z,13.62
2018-05-03T01:04:45.692Z,13.62
2018-05-03T01:05:45.694Z,13.56
2018-05-03T01:06:45.694Z,13.56
2018-05-03T01:07:45.734Z,13.56
2018-05-03T01:08:45.721Z,13.5
2018-05-03T01:09:45.685Z,13.56
2018-05-03T01:10:45.722Z,13.44
2018-05-03T01:11:45.698Z,13.5
2018-05-03T01:12:45.736Z,13.5
2018-05-03T01:13:45.740Z,13.44
2018-05-03T01:14:45.701Z,13.44
2018-05-03T01:15:45.732Z,13.44
2018-05-03T01:16:45.762Z,13.38
2018-05-03T01:17:45.732Z,13.38
2018-05-03T01:18:45.722Z,13.31
2018-05-03T01:19:45.744Z,13.38
2018-05-03T01:20:45.801Z,13.31
2018-05-03T01:21:45.736Z,13.38
2018-05-03T01:22:45.702Z,13.31
2018-05-03T01:23:45.784Z,13.31
2018-05-03T01:24:45.686Z,13.31
2018-05-03T01:25:45.770Z,13.31
2018-05-03T01:26:45.732Z,13.25
2018-05-03T01:27:45.940Z,13.25
2018-05-03T01:28:45.697Z,13.25
2018-05-03T01:29:45.709Z,13.25
2018-05-03T01:30:45.772Z,13.25
2018-05-03T01:31:45.726Z,13.25
2018-05-03T01:32:45.713Z,13.25
2018-05-03T01:33:45.713Z,13.25
2018-05-03T01:34:45.692Z,13.31
2018-05-03T01:35:45.694Z,13.25
2018-05-03T01:36:45.699Z,13.25
2018-05-03T01:37:45.709Z,13.25
2018-05-03T01:38:45.798Z,13.31
2018-05-03T01:39:45.711Z,13.31
2018-05-03T01:40:45.714Z,13.31
2018-05-03T01:41:45.726Z,13.31
2018-05-03T01:42:45.736Z,13.25
2018-05-03T01:43:45.726Z,13.31
2018-05-03T01:44:45.711Z,13.25
2018-05-03T01:45:45.752Z,13.25
2018-05-03T01:46:45.736Z,13.25
2018-05-03T01:47:45.734Z,13.25
2018-05-03T01:48:45.891Z,13.31
2018-05-03T01:49:45.953Z,13.31
2018-05-03T01:50:45.730Z,13.25
2018-05-03T01:51:45.729Z,13.31
2018-05-03T01:52:45.742Z,13.31
2018-05-03T01:53:45.770Z,13.31
2018-05-03T01:54:46.477Z,13.25
2018-05-03T01:55:45.728Z,13.31
2018-05-03T01:56:45.748Z,13.31
2018-05-03T01:57:45.738Z,13.31
2018-05-03T01:58:45.747Z,13.31
2018-05-03T01:59:45.721Z,13.31
2018-05-03T02:00:45.729Z,13.31
2018-05-03T02:01:45.771Z,13.31
2018-05-03T02:02:45.735Z,13.31
2018-05-03T02:03:45.753Z,13.31
2018-05-03T02:04:45.717Z,13.31
2018-05-03T02:05:45.717Z,13.25
2018-05-03T02:06:45.823Z,13.25
2018-05-03T02:07:45.742Z,13.25
2018-05-03T02:08:45.738Z,13.25
2018-05-03T02:09:45.720Z,13.25
2018-05-03T02:10:45.750Z,13.25
2018-05-03T02:11:45.729Z,13.25
2018-05-03T02:12:45.751Z,13.25
2018-05-03T02:13:45.715Z,13.25
2018-05-03T02:14:45.750Z,13.25
2018-05-03T02:15:45.707Z,13.25
2018-05-03T02:16:45.739Z,13.25
2018-05-03T02:17:45.822Z,13.25
2018-05-03T02:18:45.731Z,13.25
2018-05-03T02:19:45.734Z,13.25
2018-05-03T02:20:45.764Z,13.25
2018-05-03T02:21:45.767Z,13.25
2018-05-03T02:22:45.744Z,13.25
2018-05-03T02:23:45.750Z,13.25
2018-05-03T02:24:45.719Z,13.25
2018-05-03T02:25:45.742Z,13.25
2018-05-03T02:26:45.731Z,13.25
2018-05-03T02:27:45.724Z,13.25
2018-05-03T02:28:45.746Z,13.25
2018-05-03T02:29:45.728Z,13.25
2018-05-03T02:30:45.767Z,13.25
2018-05-03T02:31:45.847Z,13.19
2018-05-03T02:32:45.754Z,13.19
2018-05-03T02:33:45.768Z,13.13
2018-05-03T02:34:45.743Z,13.13
2018-05-03T02:35:45.757Z,13.13
2018-05-03T02:36:45.772Z,13.06
2018-05-03T02:37:45.722Z,13.06
2018-05-03T02:38:45.744Z,13.06
2018-05-03T02:39:45.826Z,13.06
2018-05-03T02:40:45.774Z,13.06
2018-05-03T02:41:45.752Z,13.06
2018-05-03T02:42:45.890Z,13.06
2018-05-03T02:43:45.758Z,13.06
2018-05-03T02:44:45.818Z,13.06
2018-05-03T02:45:45.750Z,13.06
2018-05-03T02:46:45.815Z,13.06
2018-05-03T02:47:45.785Z,13.06
2018-05-03T02:48:45.752Z,13.06
2018-05-03T02:49:45.771Z,13.06
2018-05-03T02:50:45.901Z,13
2018-05-03T02:51:45.761Z,13
2018-05-03T02:52:45.766Z,13
2018-05-03T02:53:45.884Z,13
2018-05-03T02:54:45.762Z,13
2018-05-03T02:55:45.767Z,13
2018-05-03T02:56:45.771Z,13
2018-05-03T02:57:45.778Z,13
2018-05-03T02:58:45.759Z,13
2018-05-03T02:59:45.810Z,13.06
2018-05-03T03:00:45.785Z,13.06
2018-05-03T03:01:45.837Z,13.06
2018-05-03T03:02:45.730Z,13.06
2018-05-03T03:03:45.769Z,13
2018-05-03T03:04:45.769Z,13
2018-05-03T03:05:45.837Z,13
2018-05-03T03:06:45.807Z,13
2018-05-03T03:07:45.779Z,13
2018-05-03T03:08:45.791Z,13
2018-05-03T03:09:46.330Z,13
2018-05-03T03:10:45.769Z,13
2018-05-03T03:11:45.795Z,13
2018-05-03T03:12:45.767Z,12.94
2018-05-03T03:13:45.757Z,12.94
2018-05-03T03:14:45.788Z,12.94
2018-05-03T03:15:45.765Z,12.94
2018-05-03T03:16:45.757Z,12.94
2018-05-03T03:17:45.765Z,12.94
2018-05-03T03:18:45.759Z,12.94
2018-05-03T03:19:45.745Z,12.94
2018-05-03T03:20:45.763Z,12.94
2018-05-03T03:21:45.771Z,12.94
2018-05-03T03:22:45.768Z,12.94
2018-05-03T03:23:45.772Z,13
2018-05-03T03:24:45.779Z,12.94
2018-05-03T03:25:45.749Z,13
2018-05-03T03:26:45.765Z,13
2018-05-03T03:27:45.763Z,12.94
2018-05-03T03:28:45.747Z,13
2018-05-03T03:29:45.786Z,12.94
2018-05-03T03:30:45.819Z,13
2018-05-03T03:31:45.837Z,13
2018-05-03T03:32:45.937Z,12.94
2018-05-03T03:33:45.809Z,12.94
2018-05-03T03:34:45.779Z,12.94
2018-05-03T03:35:45.770Z,12.94
2018-05-03T03:36:45.776Z,12.94
2018-05-03T03:37:45.757Z,12.94
2018-05-03T03:38:45.957Z,13
2018-05-03T03:39:45.780Z,12.94
2018-05-03T03:40:45.846Z,13
2018-05-03T03:41:45.756Z,12.94
2018-05-03T03:42:45.760Z,12.94
2018-05-03T03:43:45.746Z,12.94
2018-05-03T03:44:45.793Z,12.94
2018-05-03T03:45:45.788Z,12.88
2018-05-03T03:46:45.767Z,12.88
2018-05-03T03:47:45.795Z,12.88
2018-05-03T03:48:45.779Z,12.88
2018-05-03T03:49:45.864Z,12.88
2018-05-03T03:50:45.821Z,12.88
2018-05-03T03:51:45.764Z,12.88
2018-05-03T03:52:45.853Z,12.81
2018-05-03T03:53:45.773Z,12.81
2018-05-03T03:54:45.961Z,12.81
2018-05-03T03:55:45.802Z,12.88
2018-05-03T03:56:45.824Z,12.88
2018-05-03T03:57:45.775Z,12.88
2018-05-03T03:58:45.808Z,12.81
2018-05-03T03:59:45.789Z,12.88
2018-05-03T04:00:45.786Z,12.88
2018-05-03T04:01:45.788Z,12.81
2018-05-03T04:02:45.775Z,12.81
2018-05-03T04:03:45.809Z,12.88
2018-05-03T04:04:45.784Z,12.81
2018-05-03T04:05:45.813Z,12.81
2018-05-03T04:06:45.767Z,12.81
2018-05-03T04:07:45.790Z,12.81
2018-05-03T04:08:45.781Z,12.81
2018-05-03T04:09:45.792Z,12.81
2018-05-03T04:10:45.795Z,12.81
2018-05-03T04:11:45.844Z,12.75
2018-05-03T04:12:45.834Z,12.81
2018-05-03T04:13:45.765Z,12.81
2018-05-03T04:14:45.803Z,12.81
2018-05-03T04:15:45.759Z,12.75
2018-05-03T04:16:45.768Z,12.75
2018-05-03T04:17:45.806Z,12.75
2018-05-03T04:18:45.852Z,12.81
2018-05-03T04:19:45.818Z,12.81
2018-05-03T04:20:45.784Z,12.75
2018-05-03T04:21:45.796Z,12.75
2018-05-03T04:22:45.805Z,12.75
2018-05-03T04:23:45.831Z,12.75
2018-05-03T04:24:45.809Z,12.75
2018-05-03T04:25:45.777Z,12.75
2018-05-03T04:26:45.816Z,12.75
2018-05-03T04:27:45.790Z,12.75
2018-05-03T04:28:45.778Z,12.69
2018-05-03T04:29:46.039Z,12.75
2018-05-03T04:30:45.793Z,12.75
2018-05-03T04:31:45.799Z,12.75
2018-05-03T04:32:45.800Z,12.75
2018-05-03T04:33:45.790Z,12.69
2018-05-03T04:34:45.809Z,12.69
2018-05-03T04:35:45.791Z,12.69
2018-05-03T04:36:45.823Z,12.69
2018-05-03T04:37:46.886Z,12.69
2018-05-03T04:38:46.013Z,12.63
2018-05-03T04:39:45.823Z,12.56
2018-05-03T04:40:45.797Z,12.56
2018-05-03T04:41:45.824Z,12.56
2018-05-03T04:42:45.814Z,12.56
2018-05-03T04:43:45.822Z,12.5
2018-05-03T04:44:45.826Z,12.56
2018-05-03T04:45:45.841Z,12.5
2018-05-03T04:46:45.791Z,12.5
2018-05-03T04:47:45.790Z,12.44
2018-05-03T04:48:45.805Z,12.44
2018-05-03T04:49:45.815Z,12.44
2018-05-03T04:50:45.995Z,12.37
2018-05-03T04:51:45.899Z,12.37
2018-05-03T04:52:45.815Z,12.37
2018-05-03T04:53:45.877Z,12.37
2018-05-03T04:54:45.994Z,12.37
2018-05-03T04:55:45.842Z,12.37
2018-05-03T04:56:45.844Z,12.37
2018-05-03T04:57:45.784Z,12.37
2018-05-03T04:58:45.793Z,12.37
2018-05-03T04:59:45.818Z,12.37
2018-05-03T05:00:45.810Z,12.31
2018-05-03T05:01:45.802Z,12.37
2018-05-03T05:02:45.828Z,12.31
2018-05-03T05:03:45.798Z,12.31
2018-05-03T05:04:46.457Z,12.25
2018-05-03T05:05:45.826Z,12.31
2018-05-03T05:06:45.804Z,12.25
2018-05-03T05:07:45.888Z,12.25
2018-05-03T05:08:45.822Z,12.31
2018-05-03T05:09:45.865Z,12.25
2018-05-03T05:10:45.818Z,12.31
2018-05-03T05:11:45.824Z,12.25
2018-05-03T05:12:45.818Z,12.25
2018-05-03T05:13:45.825Z,12.19
2018-05-03T05:14:45.851Z,12.25
2018-05-03T05:15:45.822Z,12.25
2018-05-03T05:16:45.818Z,12.25
2018-05-03T05:17:45.836Z,12.25
2018-05-03T05:18:45.807Z,12.19
2018-05-03T05:19:45.894Z,12.19
2018-05-03T05:20:45.876Z,12.19
2018-05-03T05:21:45.902Z,12.13
2018-05-03T05:22:45.852Z,12.13
2018-05-03T05:23:45.795Z,12.13
2018-05-03T05:24:45.814Z,12.13
2018-05-03T05:25:45.826Z,12.13
2018-05-03T05:26:45.807Z,12.06
2018-05-03T05:27:45.861Z,12.06
2018-05-03T05:28:45.785Z,12.06
2018-05-03T05:29:45.867Z,12.13
2018-05-03T05:30:46.570Z,12.06
2018-05-03T05:31:45.849Z,12.06
2018-05-03T05:32:46.081Z,12.06
2018-05-03T05:33:45.859Z,12.06
2018-05-03T05:34:45.867Z,12.13
2018-05-03T05:35:45.819Z,12.06
2018-05-03T05:36:45.803Z,12.06
2018-05-03T05:37:45.810Z,12.06
2018-05-03T05:38:46.661Z,12.06
2018-05-03T05:39:45.969Z,12.06
2018-05-03T05:40:45.828Z,12.13
2018-05-03T05:41:45.796Z,12.13
2018-05-03T05:42:45.849Z,12.06
2018-05-03T05:43:45.855Z,12
2018-05-03T05:44:45.935Z,12.06
2018-05-03T05:45:45.888Z,12.06
2018-05-03T05:46:45.846Z,12.06
2018-05-03T05:47:45.847Z,12
2018-05-03T05:48:45.855Z,12
2018-05-03T05:49:45.794Z,12.06
2018-05-03T05:50:45.798Z,12.06
2018-05-03T05:51:45.871Z,12.06
2018-05-03T05:52:45.817Z,12.06
2018-05-03T05:53:45.848Z,12.06
2018-05-03T05:54:45.827Z,12.13
2018-05-03T05:55:45.829Z,12.13
2018-05-03T05:56:46.486Z,12.19
2018-05-03T05:57:45.817Z,12.19
2018-05-03T05:58:45.833Z,12.25
2018-05-03T05:59:45.954Z,12.31
2018-05-03T06:00:45.805Z,12.31
2018-05-03T06:01:45.990Z,12.37
2018-05-03T06:02:45.823Z,12.31
2018-05-03T06:03:45.784Z,12.37
2018-05-03T06:04:45.825Z,12.37
2018-05-03T06:05:45.815Z,12.44
2018-05-03T06:06:45.950Z,12.5
2018-05-03T06:07:45.819Z,12.44
2018-05-03T06:08:45.815Z,12.56
2018-05-03T06:09:45.856Z,12.5
2018-05-03T06:10:45.833Z,12.56
2018-05-03T06:11:45.856Z,12.56
2018-05-03T06:12:45.817Z,12.56
2018-05-03T06:13:45.819Z,12.56
2018-05-03T06:14:45.832Z,12.56
2018-05-03T06:15:45.912Z,12.56
2018-05-03T06:16:45.814Z,12.5
2018-05-03T06:17:45.849Z,12.5
2018-05-03T06:18:45.828Z,12.56
2018-05-03T06:19:45.809Z,12.56
2018-05-03T06:20:45.851Z,12.63
2018-05-03T06:21:45.927Z,12.56
2018-05-03T06:22:45.836Z,12.56
2018-05-03T06:23:45.823Z,12.56
2018-05-03T06:24:45.859Z,12.56
2018-05-03T06:25:45.859Z,12.56
2018-05-03T06:26:45.832Z,12.63
2018-05-03T06:27:45.841Z,12.63
2018-05-03T06:28:45.878Z,12.63
2018-05-03T06:29:45.825Z,12.63
2018-05-03T06:30:45.873Z,12.56
2018-05-03T06:31:45.857Z,12.63
2018-05-03T06:32:45.829Z,12.63
2018-05-03T06:33:45.836Z,12.56
2018-05-03T06:34:47.136Z,12.56
2018-05-03T06:35:45.834Z,12.63
2018-05-03T06:36:45.840Z,12.56
2018-05-03T06:37:45.883Z,12.56
2018-05-03T06:38:46.105Z,12.56
2018-05-03T06:39:45.846Z,12.56
2018-05-03T06:40:45.885Z,12.56
2018-05-03T06:41:45.842Z,12.56
2018-05-03T06:42:45.905Z,12.56
2018-05-03T06:43:45.810Z,12.5
2018-05-03T06:44:45.877Z,12.56
2018-05-03T06:45:45.824Z,12.56
2018-05-03T06:46:45.830Z,12.56
2018-05-03T06:47:45.940Z,12.63
2018-05-03T06:48:45.837Z,12.56
2018-05-03T06:49:45.850Z,12.63
2018-05-03T06:50:45.868Z,12.63
2018-05-03T06:51:45.835Z,12.69
2018-05-03T06:52:45.811Z,12.75
2018-05-03T06:53:45.890Z,12.75
2018-05-03T06:54:46.010Z,12.81
2018-05-03T06:55:45.807Z,12.88
2018-05-03T06:56:45.855Z,12.88
2018-05-03T06:57:45.841Z,12.94
2018-05-03T06:58:45.850Z,12.94
2018-05-03T06:59:45.836Z,13
2018-05-03T07:00:45.893Z,13
2018-05-03T07:01:45.854Z,13
2018-05-03T07:02:45.850Z,13
2018-05-03T07:03:45.849Z,13.06
2018-05-03T07:04:45.900Z,13.06
2018-05-03T07:05:45.829Z,13.06
2018-05-03T07:06:45.896Z,13.13
2018-05-03T07:07:45.874Z,13.13
2018-05-03T07:08:45.831Z,13.19
2018-05-03T07:09:45.847Z,13.19
2018-05-03T07:10:45.845Z,13.25
2018-05-03T07:11:45.941Z,13.19
2018-05-03T07:12:45.831Z,13.19
2018-05-03T07:13:45.835Z,13.25
2018-05-03T07:14:45.872Z,13.19
2018-05-03T07:15:45.836Z,13.25
2018-05-03T07:16:45.834Z,13.25
2018-05-03T07:17:45.849Z,13.25
2018-05-03T07:18:45.865Z,13.25
2018-05-03T07:19:45.862Z,13.25
2018-05-03T07:20:45.879Z,13.25
2018-05-03T07:21:45.897Z,13.19
2018-05-03T07:22:45.837Z,13.19
2018-05-03T07:23:46.235Z,13.19
2018-05-03T07:24:45.868Z,13.25
2018-05-03T07:25:45.859Z,13.19
2018-05-03T07:26:45.841Z,13.25
2018-05-03T07:27:45.889Z,13.25
2018-05-03T07:28:45.881Z,13.25
2018-05-03T07:29:45.849Z,13.31
2018-05-03T07:30:45.880Z,13.25
2018-05-03T07:31:45.871Z,13.25
2018-05-03T07:32:45.921Z,13.25
2018-05-03T07:33:45.847Z,13.25
2018-05-03T07:34:46.487Z,13.31
2018-05-03T07:35:45.977Z,13.31
2018-05-03T07:36:45.878Z,13.31
2018-05-03T07:37:45.901Z,13.31
2018-05-03T07:38:45.867Z,13.31
2018-05-03T07:39:45.860Z,13.31
2018-05-03T07:40:47.064Z,13.31
2018-05-03T07:41:45.857Z,13.38
2018-05-03T07:42:45.946Z,13.31
2018-05-03T07:43:45.879Z,13.38
2018-05-03T07:44:45.936Z,13.38
2018-05-03T07:45:46.257Z,13.44
2018-05-03T07:46:45.897Z,13.44
2018-05-03T07:47:45.882Z,13.44
2018-05-03T07:48:45.904Z,13.44
2018-05-03T07:49:45.863Z,13.5
2018-05-03T07:50:45.893Z,13.5
2018-05-03T07:51:45.910Z,13.56
2018-05-03T07:52:45.891Z,13.56
2018-05-03T07:53:45.860Z,13.56
2018-05-03T07:54:45.860Z,13.62
2018-05-03T07:55:45.931Z,13.62
2018-05-03T07:56:46.647Z,13.62
2018-05-03T07:57:45.908Z,13.69
2018-05-03T07:58:45.881Z,13.75
2018-05-03T07:59:45.859Z,13.75
2018-05-03T08:00:45.866Z,13.75
2018-05-03T08:01:45.871Z,13.75
2018-05-03T08:02:45.869Z,13.81
2018-05-03T08:03:45.947Z,13.81
2018-05-03T08:04:46.128Z,13.81
2018-05-03T08:05:45.858Z,13.88
2018-05-03T08:06:45.884Z,13.81
2018-05-03T08:07:46.814Z,13.81
2018-05-03T08:08:45.950Z,13.81
2018-05-03T08:09:45.956Z,13.81
2018-05-03T08:10:45.859Z,13.75
2018-05-03T08:11:45.900Z,13.75
2018-05-03T08:12:45.857Z,13.75
2018-05-03T08:13:45.839Z,13.69
2018-05-03T08:14:45.864Z,13.69
2018-05-03T08:15:45.863Z,13.75
2018-05-03T08:16:45.881Z,13.75
2018-05-03T08:17:45.884Z,13.75
2018-05-03T08:18:45.878Z,13.75
2018-05-03T08:19:45.867Z,13.75
2018-05-03T08:20:45.910Z,13.81
2018-05-03T08:21:45.913Z,13.75
2018-05-03T08:22:45.891Z,13.81
2018-05-03T08:23:45.880Z,13.75
2018-05-03T08:24:45.885Z,13.75
2018-05-03T08:25:45.879Z,13.81
2018-05-03T08:26:45.908Z,13.81
2018-05-03T08:27:45.996Z,13.81
2018-05-03T08:28:45.887Z,13.88
2018-05-03T08:29:45.873Z,13.81
2018-05-03T08:30:45.908Z,13.81
2018-05-03T08:31:46.432Z,13.81
2018-05-03T08:32:45.950Z,13.88
2018-05-03T08:33:45.956Z,13.94
2018-05-03T08:34:45.915Z,13.94
2018-05-03T08:35:45.887Z,13.94
2018-05-03T08:36:45.906Z,13.94
2018-05-03T08:37:45.887Z,14
2018-05-03T08:38:45.890Z,14
2018-05-03T08:39:45.888Z,14
2018-05-03T08:40:45.904Z,14
2018-05-03T08:41:46.029Z,14
2018-05-03T08:42:45.878Z,14.06
2018-05-03T08:43:45.880Z,14.06
2018-05-03T08:44:45.908Z,14
2018-05-03T08:45:45.896Z,14.06
2018-05-03T08:46:45.899Z,14.06
2018-05-03T08:47:45.933Z,14.06
2018-05-03T08:48:45.888Z,14
2018-05-03T08:49:45.942Z,14.06
2018-05-03T08:50:45.870Z,14.06
2018-05-03T08:51:45.897Z,14.13
2018-05-03T08:52:45.922Z,14.13
2018-05-03T08:53:45.921Z,14.25
2018-05-03T08:54:45.946Z,14.31
2018-05-03T08:55:46.380Z,14.38
2018-05-03T08:56:45.909Z,14.5
2018-05-03T08:57:45.913Z,14.5
2018-05-03T08:58:46.062Z,14.5
2018-05-03T08:59:45.956Z,14.63
2018-05-03T09:00:45.877Z,14.63
2018-05-03T09:01:46.603Z,14.69
2018-05-03T09:02:45.916Z,14.75
2018-05-03T09:03:45.916Z,14.81
2018-05-03T09:04:45.895Z,14.81
2018-05-03T09:05:46.079Z,14.75
2018-05-03T09:06:45.910Z,14.81
2018-05-03T09:07:46.426Z,14.87
2018-05-03T09:08:45.915Z,14.94
2018-05-03T09:09:46.051Z,14.94
2018-05-03T09:10:45.928Z,15
2018-05-03T09:11:45.945Z,15
2018-05-03T09:12:45.918Z,15.06
2018-05-03T09:13:45.897Z,15.06
2018-05-03T09:14:46.023Z,15.06
2018-05-03T09:15:45.944Z,15.06
2018-05-03T09:16:45.971Z,15.06
2018-05-03T09:17:45.947Z,15.13
2018-05-03T09:18:45.906Z,15.13
2018-05-03T09:19:45.918Z,15.25
2018-05-03T09:20:45.900Z,15.31
2018-05-03T09:21:45.893Z,15.31
2018-05-03T09:22:45.921Z,15.44
2018-05-03T09:23:45.917Z,15.44
2018-05-03T09:24:45.910Z,15.5
2018-05-03T09:25:45.906Z,15.5
2018-05-03T09:26:46.153Z,15.56
2018-05-03T09:27:45.918Z,15.56
2018-05-03T09:28:45.915Z,15.5
2018-05-03T09:29:45.963Z,15.5
2018-05-03T09:30:45.904Z,15.5
2018-05-03T09:31:45.923Z,15.5
2018-05-03T09:32:45.898Z,15.5
2018-05-03T09:33:45.925Z,15.5
2018-05-03T09:34:45.922Z,15.5
2018-05-03T09:35:45.974Z,15.56
2018-05-03T09:36:45.933Z,15.56
2018-05-03T09:37:45.906Z,15.56
2018-05-03T09:38:45.926Z,15.5
2018-05-03T09:39:45.928Z,15.5
2018-05-03T09:40:45.956Z,15.56
2018-05-03T09:41:46.013Z,15.56
2018-05-03T09:42:45.916Z,15.56
2018-05-03T09:43:45.916Z,15.56
2018-05-03T09:44:46.512Z,15.56
2018-05-03T09:45:45.989Z,15.56
2018-05-03T09:46:45.975Z,15.63
2018-05-03T09:47:46.084Z,15.69
2018-05-03T09:48:45.932Z,15.56
2018-05-03T09:49:46.067Z,15.56
2018-05-03T09:50:46.008Z,15.63
2018-05-03T09:51:46.009Z,15.69
2018-05-03T09:52:46.056Z,15.75
2018-05-03T09:53:46.277Z,15.75
2018-05-03T09:54:45.957Z,15.69
2018-05-03T09:55:45.947Z,15.63
2018-05-03T09:56:45.908Z,15.75
2018-05-03T09:57:46.034Z,15.69
2018-05-03T09:58:45.985Z,15.75
2018-05-03T09:59:46.047Z,15.75
2018-05-03T10:00:45.983Z,15.81
2018-05-03T10:01:45.951Z,15.81
2018-05-03T10:02:45.981Z,15.88
2018-05-03T10:03:45.908Z,15.88
2018-05-03T10:04:46.700Z,15.94
2018-05-03T10:05:46.028Z,15.88
2018-05-03T10:06:45.955Z,15.88
2018-05-03T10:07:45.960Z,15.88
2018-05-03T10:08:45.939Z,15.88
2018-05-03T10:09:45.944Z,15.88
2018-05-03T10:10:45.964Z,15.94
2018-05-03T10:11:45.970Z,16
2018-05-03T10:12:45.982Z,16.12
2018-05-03T10:13:45.929Z,16.12
2018-05-03T10:14:45.968Z,16.06
2018-05-03T10:15:45.997Z,16.12
2018-05-03T10:16:45.961Z,16.06
2018-05-03T10:17:45.990Z,16.12
2018-05-03T10:18:46.096Z,16.25
2018-05-03T10:19:46.070Z,16.25
2018-05-03T10:20:45.936Z,16.31
2018-05-03T10:21:45.947Z,16.37
2018-05-03T10:22:45.968Z,16.37
2018-05-03T10:23:46.086Z,16.37
2018-05-03T10:24:46.001Z,16.37
2018-05-03T10:25:45.972Z,16.31
2018-05-03T10:26:45.990Z,16.37
2018-05-03T10:27:45.990Z,16.31
2018-05-03T10:28:45.984Z,16.37
2018-05-03T10:29:45.920Z,16.31
2018-05-03T10:30:45.988Z,16.37
2018-05-03T10:31:46.020Z,16.37
2018-05-03T10:32:45.961Z,16.44
2018-05-03T10:33:45.984Z,16.5
2018-05-03T10:34:45.976Z,16.5
2018-05-03T10:35:47.049Z,16.62
2018-05-03T10:36:45.943Z,16.69
2018-05-03T10:37:45.950Z,16.62
2018-05-03T10:38:45.931Z,16.62
2018-05-03T10:39:45.978Z,16.62
2018-05-03T10:40:45.953Z,16.62
2018-05-03T10:41:45.961Z,16.62
2018-05-03T10:42:45.968Z,16.75
2018-05-03T10:43:46.248Z,16.81
2018-05-03T10:44:45.972Z,16.81
2018-05-03T10:45:45.957Z,16.81
2018-05-03T10:46:45.954Z,16.87
2018-05-03T10:47:45.966Z,16.87
2018-05-03T10:48:45.973Z,16.87
2018-05-03T10:49:45.979Z,16.87
2018-05-03T10:50:45.975Z,16.87
2018-05-03T10:51:45.989Z,16.81
2018-05-03T10:52:46.027Z,16.87
2018-05-03T10:53:45.937Z,17
2018-05-03T10:54:46.078Z,17.06
2018-05-03T10:55:46.013Z,17.12
2018-05-03T10:56:46.049Z,17.19
2018-05-03T10:57:45.959Z,17.19
2018-05-03T10:58:45.998Z,17.31
2018-05-03T10:59:45.968Z,17.31
2018-05-03T11:00:46.003Z,17.37
2018-05-03T11:01:46.032Z,17.44
2018-05-03T11:02:46.022Z,17.44
2018-05-03T11:03:46.260Z,17.56
2018-05-03T11:04:46.010Z,17.5
2018-05-03T11:05:46.004Z,17.5
2018-05-03T11:06:46.005Z,17.56
2018-05-03T11:07:45.997Z,17.44
2018-05-03T11:08:46.032Z,17.44
2018-05-03T11:09:45.966Z,17.37
2018-05-03T11:10:45.991Z,17.37
2018-05-03T11:11:45.949Z,17.5
2018-05-03T11:12:45.958Z,17.56
2018-05-03T11:13:45.973Z,17.62
2018-05-03T11:14:46.069Z,17.62
2018-05-03T11:15:45.989Z,17.56
2018-05-03T11:16:46.397Z,17.62
2018-05-03T11:17:46.062Z,17.69
2018-05-03T11:18:46.017Z,17.81
2018-05-03T11:19:46.003Z,17.81
2018-05-03T11:20:46.090Z,17.81
2018-05-03T11:21:45.986Z,17.94
2018-05-03T11:22:46.019Z,18.06
2018-05-03T11:23:46.158Z,18
2018-05-03T11:24:46.078Z,18
2018-05-03T11:25:46.013Z,17.94
2018-05-03T11:26:45.973Z,18.06
2018-05-03T11:27:46.075Z,18.06
2018-05-03T11:28:46.111Z,18.06
2018-05-03T11:29:46.142Z,18.06
2018-05-03T11:30:46.114Z,18.12
2018-05-03T11:31:45.998Z,18.19
2018-05-03T11:32:45.946Z,18.25
2018-05-03T11:33:45.964Z,18.25
2018-05-03T11:34:46.028Z,18.31
2018-05-03T11:35:45.966Z,18.31
2018-05-03T11:36:47.122Z,18.37
2018-05-03T11:37:45.995Z,18.44
2018-05-03T11:38:45.986Z,18.5
2018-05-03T11:39:46.035Z,18.5
2018-05-03T11:40:46.037Z,18.5
2018-05-03T11:41:45.983Z,18.5
2018-05-03T11:42:46.816Z,18.5
2018-05-03T11:43:45.993Z,18.37
2018-05-03T11:44:45.989Z,18.44
2018-05-03T11:45:46.071Z,18.44
2018-05-03T11:46:45.986Z,18.56
2018-05-03T11:47:46.043Z,18.56
2018-05-03T11:48:46.591Z,18.56
2018-05-03T11:49:45.985Z,18.56
2018-05-03T11:50:46.004Z,18.5
2018-05-03T11:51:45.986Z,18.44
2018-05-03T11:52:46.039Z,18.62
2018-05-03T11:53:46.000Z,18.56
2018-05-03T11:54:46.104Z,18.62
2018-05-03T11:55:46.050Z,18.69
2018-05-03T11:56:45.995Z,18.69
2018-05-03T11:57:46.187Z,18.69
2018-05-03T11:58:45.998Z,18.75
2018-05-03T11:59:46.099Z,18.81
2018-05-03T12:00:46.049Z,18.94
2018-05-03T12:01:45.973Z,18.94
2018-05-03T12:02:45.993Z,18.94
2018-05-03T12:03:45.985Z,19
2018-05-03T12:04:46.150Z,18.81
2018-05-03T12:05:46.019Z,18.87
2018-05-03T12:06:46.256Z,18.81
2018-05-03T12:07:46.106Z,18.81
2018-05-03T12:08:46.022Z,18.75
2018-05-03T12:09:46.128Z,18.69
2018-05-03T12:10:46.028Z,18.62
2018-05-03T12:11:46.684Z,18.62
2018-05-03T12:12:46.076Z,18.56
2018-05-03T12:13:46.069Z,18.62
2018-05-03T12:14:46.121Z,18.69
2018-05-03T12:15:46.086Z,18.81
2018-05-03T12:16:46.035Z,18.94
2018-05-03T12:17:46.055Z,18.94
2018-05-03T12:18:46.133Z,19
2018-05-03T12:19:46.032Z,19
2018-05-03T12:20:46.028Z,19.06
2018-05-03T12:21:46.034Z,19
2018-05-03T12:22:46.046Z,18.94
2018-05-03T12:23:46.046Z,19.06
2018-05-03T12:24:46.031Z,19
2018-05-03T12:25:46.071Z,19
2018-05-03T12:26:46.164Z,19.06
2018-05-03T12:27:46.008Z,19.12
2018-05-03T12:28:46.147Z,19.06
2018-05-03T12:29:46.047Z,19.06
2018-05-03T12:30:46.007Z,19
2018-05-03T12:31:46.063Z,19
2018-05-03T12:32:46.036Z,19.06
2018-05-03T12:33:45.992Z,19.12
2018-05-03T12:34:46.396Z,19.12
2018-05-03T12:35:46.037Z,19.12
2018-05-03T12:36:46.048Z,19.25
2018-05-03T12:37:46.113Z,19.44
2018-05-03T12:38:46.111Z,19.37
2018-05-03T12:39:46.005Z,19.44
2018-05-03T12:40:46.037Z,19.62
2018-05-03T12:41:46.033Z,19.56
2018-05-03T12:42:46.017Z,19.69
2018-05-03T12:43:45.995Z,19.56
2018-05-03T12:44:46.008Z,19.56
2018-05-03T12:45:46.004Z,19.62
2018-05-03T12:46:46.017Z,19.56
2018-05-03T12:47:46.077Z,19.56
2018-05-03T12:48:46.017Z,19.56
2018-05-03T12:49:46.006Z,19.44
2018-05-03T12:50:46.009Z,19.56
2018-05-03T12:51:46.404Z,19.56
2018-05-03T12:52:46.044Z,19.56
2018-05-03T12:53:46.059Z,19.5
2018-05-03T12:54:46.029Z,19.5
2018-05-03T12:55:46.024Z,19.5
2018-05-03T12:56:46.009Z,19.56
2018-05-03T12:57:46.026Z,19.62
2018-05-03T12:58:46.033Z,19.69
2018-05-03T12:59:46.056Z,19.69